sensor_id;sensor_type;location;lat;lon;timestamp;temperature;humidity
52451;DHT22;38366;53.176;6.540;2023-04-08T00:01:54;5.30;99.90
52451;DHT22;38366;53.176;6.540;2023-04-08T00:04:20;5.30;99.90
52451;DHT22;38366;53.176;6.540;2023-04-08T00:06:45;5.20;99.90
52451;DHT22;38366;53.176;6.540;2023-04-08T00:09:11;5.20;99.90
52451;DHT22;38366;53.176;6.540;2023-04-08T00:11:37;5.20;99.90
52451;DHT22;38366;53.176;6.540;2023-04-08T00:14:03;5.20;99.90
52451;DHT22;38366;53.176;6.540;2023-04-08T00:16:29;5.20;99.90
52451;DHT22;38366;53.176;6.540;2023-04-08T00:18:55;5.10;99.90
52451;DHT22;38366;53.176;6.540;2023-04-08T00:21:21;5.10;99.90
52451;DHT22;38366;53.176;6.540;2023-04-08T00:23:48;6.10;99.90
52451;DHT22;38366;53.176;6.540;2023-04-08T00:26:13;5.10;99.90
52451;DHT22;38366;53.176;6.540;2023-04-08T00:28:40;5.60;99.90
52451;DHT22;38366;53.176;6.540;2023-04-08T00:31:07;5.00;99.90
52451;DHT22;38366;53.176;6.540;2023-04-08T00:33:33;5.00;99.90
52451;DHT22;38366;53.176;6.540;2023-04-08T00:35:59;5.00;99.90
52451;DHT22;38366;53.176;6.540;2023-04-08T00:38:24;5.00;99.90
52451;DHT22;38366;53.176;6.540;2023-04-08T00:40:50;5.00;99.90
52451;DHT22;38366;53.176;6.540;2023-04-08T00:43:16;5.40;99.90
52451;DHT22;38366;53.176;6.540;2023-04-08T00:45:45;4.90;99.90
52451;DHT22;38366;53.176;6.540;2023-04-08T00:48:11;4.90;99.90
52451;DHT22;38366;53.176;6.540;2023-04-08T00:50:37;4.80;99.90
52451;DHT22;38366;53.176;6.540;2023-04-08T00:53:02;5.30;99.90
52451;DHT22;38366;53.176;6.540;2023-04-08T00:55:28;6.00;99.90
52451;DHT22;38366;53.176;6.540;2023-04-08T00:57:55;4.80;99.90
52451;DHT22;38366;53.176;6.540;2023-04-08T01:00:21;4.80;99.90
52451;DHT22;38366;53.176;6.540;2023-04-08T01:03:04;4.80;99.90
52451;DHT22;38366;53.176;6.540;2023-04-08T01:08:06;4.70;99.90
52451;DHT22;38366;53.176;6.540;2023-04-08T01:10:34;4.70;99.90
52451;DHT22;38366;53.176;6.540;2023-04-08T01:13:08;4.70;99.90
52451;DHT22;38366;53.176;6.540;2023-04-08T01:15:36;4.70;99.90
52451;DHT22;38366;53.176;6.540;2023-04-08T01:18:06;4.60;99.90
52451;DHT22;38366;53.176;6.540;2023-04-08T01:20:33;5.10;99.90
52451;DHT22;38366;53.176;6.540;2023-04-08T01:23:02;5.10;99.90
52451;DHT22;38366;53.176;6.540;2023-04-08T01:25:34;4.60;99.90
52451;DHT22;38366;53.176;6.540;2023-04-08T01:28:18;4.60;99.90
52451;DHT22;38366;53.176;6.540;2023-04-08T01:30:46;4.50;99.90
52451;DHT22;38366;53.176;6.540;2023-04-08T01:33:15;4.60;99.90
52451;DHT22;38366;53.176;6.540;2023-04-08T01:35:42;5.10;99.90
52451;DHT22;38366;53.176;6.540;2023-04-08T01:38:09;4.60;99.90
52451;DHT22;38366;53.176;6.540;2023-04-08T01:40:37;4.50;99.90
52451;DHT22;38366;53.176;6.540;2023-04-08T01:43:04;4.60;99.90
52451;DHT22;38366;53.176;6.540;2023-04-08T01:45:32;5.40;99.90
52451;DHT22;38366;53.176;6.540;2023-04-08T01:47:59;4.50;99.90
52451;DHT22;38366;53.176;6.540;2023-04-08T01:50:26;4.50;99.90
52451;DHT22;38366;53.176;6.540;2023-04-08T01:52:54;5.10;99.90
52451;DHT22;38366;53.176;6.540;2023-04-08T01:55:20;4.80;99.90
52451;DHT22;38366;53.176;6.540;2023-04-08T01:57:52;4.40;99.90
52451;DHT22;38366;53.176;6.540;2023-04-08T02:00:27;4.40;99.90
52451;DHT22;38366;53.176;6.540;2023-04-08T02:02:54;4.30;99.90
52451;DHT22;38366;53.176;6.540;2023-04-08T02:05:20;4.30;99.90
52451;DHT22;38366;53.176;6.540;2023-04-08T02:07:47;5.10;99.90
52451;DHT22;38366;53.176;6.540;2023-04-08T02:10:13;4.80;99.90
52451;DHT22;38366;53.176;6.540;2023-04-08T02:12:39;4.70;99.90
52451;DHT22;38366;53.176;6.540;2023-04-08T02:15:06;4.60;99.90
52451;DHT22;38366;53.176;6.540;2023-04-08T02:17:48;4.20;99.90
52451;DHT22;38366;53.176;6.540;2023-04-08T02:20:19;4.20;99.90
52451;DHT22;38366;53.176;6.540;2023-04-08T02:23:04;4.30;99.90
52451;DHT22;38366;53.176;6.540;2023-04-08T02:25:34;4.20;99.90
52451;DHT22;38366;53.176;6.540;2023-04-08T02:28:07;4.20;99.90
52451;DHT22;38366;53.176;6.540;2023-04-08T02:30:36;4.20;99.90
52451;DHT22;38366;53.176;6.540;2023-04-08T02:33:05;4.60;99.90
52451;DHT22;38366;53.176;6.540;2023-04-08T02:35:32;4.90;99.90
52451;DHT22;38366;53.176;6.540;2023-04-08T02:37:59;5.00;99.90
52451;DHT22;38366;53.176;6.540;2023-04-08T02:40:32;4.20;99.90
52451;DHT22;38366;53.176;6.540;2023-04-08T02:43:00;4.10;99.90
52451;DHT22;38366;53.176;6.540;2023-04-08T02:45:37;5.10;99.90
52451;DHT22;38366;53.176;6.540;2023-04-08T02:48:03;4.10;99.90
52451;DHT22;38366;53.176;6.540;2023-04-08T02:50:30;4.10;99.90
52451;DHT22;38366;53.176;6.540;2023-04-08T02:52:55;4.90;99.90
52451;DHT22;38366;53.176;6.540;2023-04-08T02:55:21;4.10;99.90
52451;DHT22;38366;53.176;6.540;2023-04-08T02:57:47;4.10;99.90
52451;DHT22;38366;53.176;6.540;2023-04-08T03:00:13;4.00;99.90
52451;DHT22;38366;53.176;6.540;2023-04-08T03:02:39;4.00;99.90
52451;DHT22;38366;53.176;6.540;2023-04-08T03:05:05;3.90;99.90
52451;DHT22;38366;53.176;6.540;2023-04-08T03:07:32;3.90;99.90
52451;DHT22;38366;53.176;6.540;2023-04-08T03:09:58;4.90;99.90
52451;DHT22;38366;53.176;6.540;2023-04-08T03:12:24;4.10;99.90
52451;DHT22;38366;53.176;6.540;2023-04-08T03:14:52;4.40;99.90
52451;DHT22;38366;53.176;6.540;2023-04-08T03:17:17;3.90;99.90
52451;DHT22;38366;53.176;6.540;2023-04-08T03:19:43;3.80;99.90
52451;DHT22;38366;53.176;6.540;2023-04-08T03:22:09;4.50;99.90
52451;DHT22;38366;53.176;6.540;2023-04-08T03:24:35;4.20;99.90
52451;DHT22;38366;53.176;6.540;2023-04-08T03:27:01;4.60;99.90
52451;DHT22;38366;53.176;6.540;2023-04-08T03:29:27;3.80;99.90
52451;DHT22;38366;53.176;6.540;2023-04-08T03:31:53;4.50;99.90
52451;DHT22;38366;53.176;6.540;2023-04-08T03:34:19;3.80;99.90
52451;DHT22;38366;53.176;6.540;2023-04-08T03:36:44;2.90;99.90
52451;DHT22;38366;53.176;6.540;2023-04-08T03:39:10;5.00;99.90
52451;DHT22;38366;53.176;6.540;2023-04-08T03:41:36;4.10;99.90
52451;DHT22;38366;53.176;6.540;2023-04-08T03:44:02;4.60;99.90
52451;DHT22;38366;53.176;6.540;2023-04-08T03:46:27;3.80;99.90
52451;DHT22;38366;53.176;6.540;2023-04-08T03:48:53;3.90;99.90
52451;DHT22;38366;53.176;6.540;2023-04-08T03:51:19;4.00;99.90
52451;DHT22;38366;53.176;6.540;2023-04-08T03:53:44;3.70;99.90
52451;DHT22;38366;53.176;6.540;2023-04-08T03:56:11;4.90;99.90
52451;DHT22;38366;53.176;6.540;2023-04-08T03:58:36;3.70;99.90
52451;DHT22;38366;53.176;6.540;2023-04-08T04:01:02;4.70;99.90
52451;DHT22;38366;53.176;6.540;2023-04-08T04:03:28;3.70;99.90
52451;DHT22;38366;53.176;6.540;2023-04-08T04:05:54;3.70;99.90
52451;DHT22;38366;53.176;6.540;2023-04-08T04:08:19;4.50;99.90
52451;DHT22;38366;53.176;6.540;2023-04-08T04:10:45;4.70;99.90
52451;DHT22;38366;53.176;6.540;2023-04-08T04:13:11;3.60;99.90
52451;DHT22;38366;53.176;6.540;2023-04-08T04:15:37;3.90;99.90
52451;DHT22;38366;53.176;6.540;2023-04-08T04:18:04;3.60;99.90
52451;DHT22;38366;53.176;6.540;2023-04-08T04:20:30;4.00;99.90
52451;DHT22;38366;53.176;6.540;2023-04-08T04:22:56;3.60;99.90
52451;DHT22;38366;53.176;6.540;2023-04-08T04:25:22;4.60;99.90
52451;DHT22;38366;53.176;6.540;2023-04-08T04:27:48;3.60;99.90
52451;DHT22;38366;53.176;6.540;2023-04-08T04:30:13;3.60;99.90
52451;DHT22;38366;53.176;6.540;2023-04-08T04:32:44;3.60;99.90
52451;DHT22;38366;53.176;6.540;2023-04-08T04:35:10;4.70;99.90
52451;DHT22;38366;53.176;6.540;2023-04-08T04:37:36;3.60;99.90
52451;DHT22;38366;53.176;6.540;2023-04-08T04:40:02;3.60;99.90
52451;DHT22;38366;53.176;6.540;2023-04-08T04:42:29;3.60;99.90
52451;DHT22;38366;53.176;6.540;2023-04-08T04:44:55;4.50;99.90
52451;DHT22;38366;53.176;6.540;2023-04-08T04:47:20;3.80;99.90
52451;DHT22;38366;53.176;6.540;2023-04-08T04:49:46;4.00;99.90
52451;DHT22;38366;53.176;6.540;2023-04-08T04:52:12;3.60;99.90
52451;DHT22;38366;53.176;6.540;2023-04-08T04:54:38;3.70;99.90
52451;DHT22;38366;53.176;6.540;2023-04-08T04:57:04;3.80;99.90
52451;DHT22;38366;53.176;6.540;2023-04-08T04:59:30;5.10;99.90
52451;DHT22;38366;53.176;6.540;2023-04-08T05:01:55;3.70;99.90
52451;DHT22;38366;53.176;6.540;2023-04-08T05:04:24;4.70;99.90
52451;DHT22;38366;53.176;6.540;2023-04-08T05:06:50;3.70;99.90
52451;DHT22;38366;53.176;6.540;2023-04-08T05:09:16;3.80;99.90
52451;DHT22;38366;53.176;6.540;2023-04-08T05:11:42;4.10;99.90
52451;DHT22;38366;53.176;6.540;2023-04-08T05:14:08;4.50;99.90
52451;DHT22;38366;53.176;6.540;2023-04-08T05:16:34;5.00;99.90
52451;DHT22;38366;53.176;6.540;2023-04-08T05:18:59;3.80;99.90
52451;DHT22;38366;53.176;6.540;2023-04-08T05:21:25;3.90;99.90
52451;DHT22;38366;53.176;6.540;2023-04-08T05:23:52;3.90;99.90
52451;DHT22;38366;53.176;6.540;2023-04-08T05:26:19;3.90;99.90
52451;DHT22;38366;53.176;6.540;2023-04-08T05:28:49;4.50;99.90
52451;DHT22;38366;53.176;6.540;2023-04-08T05:31:18;4.00;99.90
52451;DHT22;38366;53.176;6.540;2023-04-08T05:33:45;4.50;99.90
52451;DHT22;38366;53.176;6.540;2023-04-08T05:36:11;5.00;99.90
52451;DHT22;38366;53.176;6.540;2023-04-08T05:38:37;4.10;99.90
52451;DHT22;38366;53.176;6.540;2023-04-08T05:41:03;4.20;99.90
52451;DHT22;38366;53.176;6.540;2023-04-08T05:43:29;4.20;99.90
52451;DHT22;38366;53.176;6.540;2023-04-08T05:45:55;4.50;99.90
52451;DHT22;38366;53.176;6.540;2023-04-08T05:48:20;4.20;99.90
52451;DHT22;38366;53.176;6.540;2023-04-08T05:50:46;4.30;99.90
52451;DHT22;38366;53.176;6.540;2023-04-08T05:53:13;4.30;99.90
52451;DHT22;38366;53.176;6.540;2023-04-08T05:55:39;4.40;99.90
52451;DHT22;38366;53.176;6.540;2023-04-08T05:58:06;4.50;99.90
52451;DHT22;38366;53.176;6.540;2023-04-08T06:00:31;4.50;99.90
52451;DHT22;38366;53.176;6.540;2023-04-08T06:02:57;4.60;99.90
52451;DHT22;38366;53.176;6.540;2023-04-08T06:05:23;4.80;99.90
52451;DHT22;38366;53.176;6.540;2023-04-08T06:07:49;4.80;99.90
52451;DHT22;38366;53.176;6.540;2023-04-08T06:10:15;4.90;99.90
52451;DHT22;38366;53.176;6.540;2023-04-08T06:12:40;5.00;99.90
52451;DHT22;38366;53.176;6.540;2023-04-08T06:15:07;5.30;99.90
52451;DHT22;38366;53.176;6.540;2023-04-08T06:17:35;5.30;99.90
52451;DHT22;38366;53.176;6.540;2023-04-08T06:20:02;5.40;99.90
52451;DHT22;38366;53.176;6.540;2023-04-08T06:22:28;5.50;99.90
52451;DHT22;38366;53.176;6.540;2023-04-08T06:24:54;5.50;99.90
52451;DHT22;38366;53.176;6.540;2023-04-08T06:27:19;5.60;99.90
52451;DHT22;38366;53.176;6.540;2023-04-08T06:29:45;5.70;99.90
52451;DHT22;38366;53.176;6.540;2023-04-08T06:32:12;5.90;99.90
52451;DHT22;38366;53.176;6.540;2023-04-08T06:34:38;6.10;99.90
52451;DHT22;38366;53.176;6.540;2023-04-08T06:37:04;6.30;99.90
52451;DHT22;38366;53.176;6.540;2023-04-08T06:39:30;6.50;99.90
52451;DHT22;38366;53.176;6.540;2023-04-08T06:41:56;6.30;99.90
52451;DHT22;38366;53.176;6.540;2023-04-08T06:44:22;6.20;99.90
52451;DHT22;38366;53.176;6.540;2023-04-08T06:46:48;6.30;99.90
52451;DHT22;38366;53.176;6.540;2023-04-08T06:49:14;6.20;99.90
52451;DHT22;38366;53.176;6.540;2023-04-08T06:51:40;6.10;99.90
52451;DHT22;38366;53.176;6.540;2023-04-08T06:54:06;6.20;99.90
52451;DHT22;38366;53.176;6.540;2023-04-08T06:56:31;6.20;99.90
52451;DHT22;38366;53.176;6.540;2023-04-08T06:58:57;6.30;99.90
52451;DHT22;38366;53.176;6.540;2023-04-08T07:01:23;6.30;99.90
52451;DHT22;38366;53.176;6.540;2023-04-08T07:03:50;6.40;99.90
52451;DHT22;38366;53.176;6.540;2023-04-08T07:06:15;6.40;99.90
52451;DHT22;38366;53.176;6.540;2023-04-08T07:08:41;6.50;99.90
52451;DHT22;38366;53.176;6.540;2023-04-08T07:11:07;6.60;99.90
52451;DHT22;38366;53.176;6.540;2023-04-08T07:13:33;6.70;99.90
52451;DHT22;38366;53.176;6.540;2023-04-08T07:15:59;7.90;99.90
52451;DHT22;38366;53.176;6.540;2023-04-08T07:18:24;6.60;99.90
52451;DHT22;38366;53.176;6.540;2023-04-08T07:20:51;6.70;99.90
52451;DHT22;38366;53.176;6.540;2023-04-08T07:23:19;6.60;99.90
52451;DHT22;38366;53.176;6.540;2023-04-08T07:25:45;7.00;99.90
52451;DHT22;38366;53.176;6.540;2023-04-08T07:28:11;6.90;99.90
52451;DHT22;38366;53.176;6.540;2023-04-08T07:30:37;7.10;99.90
52451;DHT22;38366;53.176;6.540;2023-04-08T07:33:02;7.20;99.90
52451;DHT22;38366;53.176;6.540;2023-04-08T07:35:29;7.00;99.90
52451;DHT22;38366;53.176;6.540;2023-04-08T07:37:56;7.10;99.90
52451;DHT22;38366;53.176;6.540;2023-04-08T07:40:22;7.20;99.90
52451;DHT22;38366;53.176;6.540;2023-04-08T07:42:48;7.20;99.90
52451;DHT22;38366;53.176;6.540;2023-04-08T07:45:14;7.40;99.90
52451;DHT22;38366;53.176;6.540;2023-04-08T07:47:40;7.40;99.90
52451;DHT22;38366;53.176;6.540;2023-04-08T07:50:06;7.60;99.90
52451;DHT22;38366;53.176;6.540;2023-04-08T07:52:32;7.70;99.90
52451;DHT22;38366;53.176;6.540;2023-04-08T07:54:58;7.50;99.90
52451;DHT22;38366;53.176;6.540;2023-04-08T07:57:25;7.50;99.90
52451;DHT22;38366;53.176;6.540;2023-04-08T07:59:50;7.50;99.90
52451;DHT22;38366;53.176;6.540;2023-04-08T08:02:16;7.50;99.90
52451;DHT22;38366;53.176;6.540;2023-04-08T08:04:42;7.50;99.90
52451;DHT22;38366;53.176;6.540;2023-04-08T08:07:07;7.70;99.90
52451;DHT22;38366;53.176;6.540;2023-04-08T08:09:33;7.80;99.90
52451;DHT22;38366;53.176;6.540;2023-04-08T08:11:59;8.10;99.90
52451;DHT22;38366;53.176;6.540;2023-04-08T08:14:25;8.30;99.90
52451;DHT22;38366;53.176;6.540;2023-04-08T08:16:51;8.60;99.90
52451;DHT22;38366;53.176;6.540;2023-04-08T08:19:19;9.10;99.90
52451;DHT22;38366;53.176;6.540;2023-04-08T08:21:45;9.80;99.90
52451;DHT22;38366;53.176;6.540;2023-04-08T08:24:11;10.10;99.90
52451;DHT22;38366;53.176;6.540;2023-04-08T08:26:36;10.20;99.90
52451;DHT22;38366;53.176;6.540;2023-04-08T08:29:03;10.10;99.90
52451;DHT22;38366;53.176;6.540;2023-04-08T08:31:29;10.10;99.90
52451;DHT22;38366;53.176;6.540;2023-04-08T08:33:55;10.00;99.90
52451;DHT22;38366;53.176;6.540;2023-04-08T08:36:21;9.90;99.90
52451;DHT22;38366;53.176;6.540;2023-04-08T08:38:47;9.60;99.90
52451;DHT22;38366;53.176;6.540;2023-04-08T08:41:12;9.30;99.90
52451;DHT22;38366;53.176;6.540;2023-04-08T08:43:38;9.20;99.90
52451;DHT22;38366;53.176;6.540;2023-04-08T08:46:07;9.10;99.90
52451;DHT22;38366;53.176;6.540;2023-04-08T08:48:35;8.90;99.90
52451;DHT22;38366;53.176;6.540;2023-04-08T08:51:07;7.60;99.90
52451;DHT22;38366;53.176;6.540;2023-04-08T08:53:34;8.50;99.90
52451;DHT22;38366;53.176;6.540;2023-04-08T08:55:59;8.50;99.90
52451;DHT22;38366;53.176;6.540;2023-04-08T08:58:26;8.30;99.90
52451;DHT22;38366;53.176;6.540;2023-04-08T09:00:52;8.20;99.90
52451;DHT22;38366;53.176;6.540;2023-04-08T09:03:20;8.10;99.90
52451;DHT22;38366;53.176;6.540;2023-04-08T09:05:54;8.10;99.90
52451;DHT22;38366;53.176;6.540;2023-04-08T09:11:29;8.20;99.90
52451;DHT22;38366;53.176;6.540;2023-04-08T09:13:54;8.20;99.90
52451;DHT22;38366;53.176;6.540;2023-04-08T09:16:21;8.00;99.90
52451;DHT22;38366;53.176;6.540;2023-04-08T09:18:48;8.00;99.90
52451;DHT22;38366;53.176;6.540;2023-04-08T09:21:15;8.00;99.90
52451;DHT22;38366;53.176;6.540;2023-04-08T09:23:45;8.00;99.90
52451;DHT22;38366;53.176;6.540;2023-04-08T09:26:20;7.90;99.90
52451;DHT22;38366;53.176;6.540;2023-04-08T09:29:01;7.90;99.90
52451;DHT22;38366;53.176;6.540;2023-04-08T09:31:35;8.10;99.90
52451;DHT22;38366;53.176;6.540;2023-04-08T09:34:10;7.90;99.90
52451;DHT22;38366;53.176;6.540;2023-04-08T09:36:37;7.90;99.90
52451;DHT22;38366;53.176;6.540;2023-04-08T09:39:03;7.90;99.90
52451;DHT22;38366;53.176;6.540;2023-04-08T09:41:35;7.80;99.90
52451;DHT22;38366;53.176;6.540;2023-04-08T09:44:06;7.90;99.90
52451;DHT22;38366;53.176;6.540;2023-04-08T09:46:37;7.90;99.90
52451;DHT22;38366;53.176;6.540;2023-04-08T09:49:12;8.00;99.90
52451;DHT22;38366;53.176;6.540;2023-04-08T09:51:48;8.10;99.90
52451;DHT22;38366;53.176;6.540;2023-04-08T09:54:19;8.30;99.90
52451;DHT22;38366;53.176;6.540;2023-04-08T09:56:56;8.50;99.90
52451;DHT22;38366;53.176;6.540;2023-04-08T09:59:26;8.60;99.90
52451;DHT22;38366;53.176;6.540;2023-04-08T10:01:56;8.70;99.90
52451;DHT22;38366;53.176;6.540;2023-04-08T10:04:25;8.80;99.90
52451;DHT22;38366;53.176;6.540;2023-04-08T10:07:03;9.00;99.90
52451;DHT22;38366;53.176;6.540;2023-04-08T10:09:31;9.10;99.90
52451;DHT22;38366;53.176;6.540;2023-04-08T10:11:57;9.20;99.90
52451;DHT22;38366;53.176;6.540;2023-04-08T10:14:23;9.20;99.90
52451;DHT22;38366;53.176;6.540;2023-04-08T10:17:27;9.10;99.90
52451;DHT22;38366;53.176;6.540;2023-04-08T10:19:54;9.00;99.90
52451;DHT22;38366;53.176;6.540;2023-04-08T10:22:45;9.00;99.90
52451;DHT22;38366;53.176;6.540;2023-04-08T10:27:41;9.00;99.90
52451;DHT22;38366;53.176;6.540;2023-04-08T10:32:52;9.00;99.90
52451;DHT22;38366;53.176;6.540;2023-04-08T10:37:57;8.90;99.90
52451;DHT22;38366;53.176;6.540;2023-04-08T10:40:24;9.00;99.90
52451;DHT22;38366;53.176;6.540;2023-04-08T10:42:54;9.10;99.90
52451;DHT22;38366;53.176;6.540;2023-04-08T10:45:20;9.20;99.90
52451;DHT22;38366;53.176;6.540;2023-04-08T10:47:46;9.20;99.90
52451;DHT22;38366;53.176;6.540;2023-04-08T10:50:19;9.40;99.90
52451;DHT22;38366;53.176;6.540;2023-04-08T10:52:52;9.40;99.90
52451;DHT22;38366;53.176;6.540;2023-04-08T10:55:25;9.40;99.90
52451;DHT22;38366;53.176;6.540;2023-04-08T10:57:52;9.50;99.90
52451;DHT22;38366;53.176;6.540;2023-04-08T11:00:30;9.50;99.90
52451;DHT22;38366;53.176;6.540;2023-04-08T11:03:03;9.50;99.90
52451;DHT22;38366;53.176;6.540;2023-04-08T11:05:30;9.50;99.90
52451;DHT22;38366;53.176;6.540;2023-04-08T11:07:58;9.50;99.90
52451;DHT22;38366;53.176;6.540;2023-04-08T11:10:24;9.60;99.90
52451;DHT22;38366;53.176;6.540;2023-04-08T11:12:50;9.50;99.90
52451;DHT22;38366;53.176;6.540;2023-04-08T11:15:18;9.60;99.90
52451;DHT22;38366;53.176;6.540;2023-04-08T11:17:44;9.50;99.90
52451;DHT22;38366;53.176;6.540;2023-04-08T11:20:11;9.50;99.90
52451;DHT22;38366;53.176;6.540;2023-04-08T11:22:38;9.50;99.90
52451;DHT22;38366;53.176;6.540;2023-04-08T11:25:05;9.60;99.90
52451;DHT22;38366;53.176;6.540;2023-04-08T11:27:33;9.70;99.90
52451;DHT22;38366;53.176;6.540;2023-04-08T11:30:01;9.70;99.90
52451;DHT22;38366;53.176;6.540;2023-04-08T11:32:27;9.80;99.90
52451;DHT22;38366;53.176;6.540;2023-04-08T11:34:57;9.90;99.90
52451;DHT22;38366;53.176;6.540;2023-04-08T11:37:24;9.90;99.90
52451;DHT22;38366;53.176;6.540;2023-04-08T11:39:50;10.00;99.90
52451;DHT22;38366;53.176;6.540;2023-04-08T11:42:28;10.00;99.90
52451;DHT22;38366;53.176;6.540;2023-04-08T11:44:55;10.10;99.90
52451;DHT22;38366;53.176;6.540;2023-04-08T11:47:21;10.10;99.90
52451;DHT22;38366;53.176;6.540;2023-04-08T11:49:47;10.20;99.90
52451;DHT22;38366;53.176;6.540;2023-04-08T11:52:13;10.20;99.90
52451;DHT22;38366;53.176;6.540;2023-04-08T11:54:42;10.20;99.90
52451;DHT22;38366;53.176;6.540;2023-04-08T11:57:08;10.20;99.90
52451;DHT22;38366;53.176;6.540;2023-04-08T11:59:35;10.00;99.90
52451;DHT22;38366;53.176;6.540;2023-04-08T12:02:02;9.90;99.90
52451;DHT22;38366;53.176;6.540;2023-04-08T12:04:28;9.80;99.90
52451;DHT22;38366;53.176;6.540;2023-04-08T12:06:54;9.90;99.90
52451;DHT22;38366;53.176;6.540;2023-04-08T12:09:20;10.00;99.90
52451;DHT22;38366;53.176;6.540;2023-04-08T12:11:46;10.10;99.90
52451;DHT22;38366;53.176;6.540;2023-04-08T12:14:13;10.20;99.90
52451;DHT22;38366;53.176;6.540;2023-04-08T12:16:38;10.20;99.90
52451;DHT22;38366;53.176;6.540;2023-04-08T12:19:04;10.20;99.90
52451;DHT22;38366;53.176;6.540;2023-04-08T12:21:30;10.30;99.90
52451;DHT22;38366;53.176;6.540;2023-04-08T12:23:58;10.20;99.90
52451;DHT22;38366;53.176;6.540;2023-04-08T12:26:24;10.20;99.90
52451;DHT22;38366;53.176;6.540;2023-04-08T12:28:49;10.20;99.90
52451;DHT22;38366;53.176;6.540;2023-04-08T12:31:15;10.30;99.90
52451;DHT22;38366;53.176;6.540;2023-04-08T12:33:41;10.30;99.90
52451;DHT22;38366;53.176;6.540;2023-04-08T12:36:06;10.30;99.90
52451;DHT22;38366;53.176;6.540;2023-04-08T12:38:32;10.20;99.90
52451;DHT22;38366;53.176;6.540;2023-04-08T12:40:58;10.20;99.90
52451;DHT22;38366;53.176;6.540;2023-04-08T12:43:24;10.30;99.90
52451;DHT22;38366;53.176;6.540;2023-04-08T12:45:50;10.20;99.90
52451;DHT22;38366;53.176;6.540;2023-04-08T12:48:16;10.30;99.90
52451;DHT22;38366;53.176;6.540;2023-04-08T12:50:42;10.30;99.90
52451;DHT22;38366;53.176;6.540;2023-04-08T12:53:07;10.30;99.90
52451;DHT22;38366;53.176;6.540;2023-04-08T12:55:36;10.40;99.90
52451;DHT22;38366;53.176;6.540;2023-04-08T12:58:02;10.30;99.90
52451;DHT22;38366;53.176;6.540;2023-04-08T13:00:28;10.30;99.90
52451;DHT22;38366;53.176;6.540;2023-04-08T13:02:53;10.30;99.90
52451;DHT22;38366;53.176;6.540;2023-04-08T13:05:19;10.30;99.90
52451;DHT22;38366;53.176;6.540;2023-04-08T13:07:45;10.40;99.90
52451;DHT22;38366;53.176;6.540;2023-04-08T13:10:11;10.50;99.90
52451;DHT22;38366;53.176;6.540;2023-04-08T13:12:37;10.50;99.90
52451;DHT22;38366;53.176;6.540;2023-04-08T13:15:05;10.30;99.90
52451;DHT22;38366;53.176;6.540;2023-04-08T13:17:31;10.40;99.90
52451;DHT22;38366;53.176;6.540;2023-04-08T13:19:57;10.60;99.90
52451;DHT22;38366;53.176;6.540;2023-04-08T13:22:23;10.60;99.90
52451;DHT22;38366;53.176;6.540;2023-04-08T13:24:48;10.70;99.90
52451;DHT22;38366;53.176;6.540;2023-04-08T13:27:14;10.70;99.90
52451;DHT22;38366;53.176;6.540;2023-04-08T13:29:40;10.70;99.90
52451;DHT22;38366;53.176;6.540;2023-04-08T13:32:05;10.70;99.90
52451;DHT22;38366;53.176;6.540;2023-04-08T13:34:31;10.80;99.90
52451;DHT22;38366;53.176;6.540;2023-04-08T13:36:57;10.60;99.90
52451;DHT22;38366;53.176;6.540;2023-04-08T13:39:22;10.60;99.90
52451;DHT22;38366;53.176;6.540;2023-04-08T13:41:48;10.70;99.90
52451;DHT22;38366;53.176;6.540;2023-04-08T13:44:14;10.80;99.90
52451;DHT22;38366;53.176;6.540;2023-04-08T13:46:41;10.80;99.90
52451;DHT22;38366;53.176;6.540;2023-04-08T13:49:07;10.80;99.90
52451;DHT22;38366;53.176;6.540;2023-04-08T13:51:33;10.80;99.90
52451;DHT22;38366;53.176;6.540;2023-04-08T13:53:59;10.90;99.90
52451;DHT22;38366;53.176;6.540;2023-04-08T13:56:25;11.10;99.90
52451;DHT22;38366;53.176;6.540;2023-04-08T13:58:51;11.10;99.90
52451;DHT22;38366;53.176;6.540;2023-04-08T14:01:17;11.20;99.90
52451;DHT22;38366;53.176;6.540;2023-04-08T14:03:42;11.40;99.90
52451;DHT22;38366;53.176;6.540;2023-04-08T14:06:08;11.50;99.90
52451;DHT22;38366;53.176;6.540;2023-04-08T14:08:34;11.40;99.90
52451;DHT22;38366;53.176;6.540;2023-04-08T14:10:59;11.40;99.90
52451;DHT22;38366;53.176;6.540;2023-04-08T14:13:25;11.40;99.90
52451;DHT22;38366;53.176;6.540;2023-04-08T14:15:51;11.60;99.90
52451;DHT22;38366;53.176;6.540;2023-04-08T14:18:19;11.70;99.90
52451;DHT22;38366;53.176;6.540;2023-04-08T14:20:45;11.80;99.90
52451;DHT22;38366;53.176;6.540;2023-04-08T14:23:10;11.90;99.90
52451;DHT22;38366;53.176;6.540;2023-04-08T14:25:38;12.00;99.90
52451;DHT22;38366;53.176;6.540;2023-04-08T14:28:03;12.00;99.90
52451;DHT22;38366;53.176;6.540;2023-04-08T14:30:29;12.00;99.90
52451;DHT22;38366;53.176;6.540;2023-04-08T14:32:56;12.00;99.90
52451;DHT22;38366;53.176;6.540;2023-04-08T14:35:23;12.10;99.90
52451;DHT22;38366;53.176;6.540;2023-04-08T14:37:49;12.20;99.90
52451;DHT22;38366;53.176;6.540;2023-04-08T14:40:14;12.30;99.90
52451;DHT22;38366;53.176;6.540;2023-04-08T14:42:40;12.40;99.90
52451;DHT22;38366;53.176;6.540;2023-04-08T14:45:07;12.50;99.90
52451;DHT22;38366;53.176;6.540;2023-04-08T14:47:32;12.50;99.90
52451;DHT22;38366;53.176;6.540;2023-04-08T14:49:58;12.50;99.90
52451;DHT22;38366;53.176;6.540;2023-04-08T14:52:24;12.50;99.90
52451;DHT22;38366;53.176;6.540;2023-04-08T14:54:49;12.50;99.90
52451;DHT22;38366;53.176;6.540;2023-04-08T14:57:15;12.50;99.90
52451;DHT22;38366;53.176;6.540;2023-04-08T14:59:41;12.50;99.90
52451;DHT22;38366;53.176;6.540;2023-04-08T15:02:06;12.40;99.90
52451;DHT22;38366;53.176;6.540;2023-04-08T15:04:32;12.30;99.90
52451;DHT22;38366;53.176;6.540;2023-04-08T15:06:58;12.50;99.90
52451;DHT22;38366;53.176;6.540;2023-04-08T15:09:23;12.50;99.90
52451;DHT22;38366;53.176;6.540;2023-04-08T15:11:49;12.50;99.90
52451;DHT22;38366;53.176;6.540;2023-04-08T15:14:15;12.60;99.90
52451;DHT22;38366;53.176;6.540;2023-04-08T15:16:41;12.70;99.90
52451;DHT22;38366;53.176;6.540;2023-04-08T15:19:06;12.60;99.90
52451;DHT22;38366;53.176;6.540;2023-04-08T15:21:32;12.60;99.90
52451;DHT22;38366;53.176;6.540;2023-04-08T15:23:58;12.50;99.90
52451;DHT22;38366;53.176;6.540;2023-04-08T15:26:24;12.60;99.90
52451;DHT22;38366;53.176;6.540;2023-04-08T15:28:53;12.60;99.90
52451;DHT22;38366;53.176;6.540;2023-04-08T15:31:18;13.00;99.90
52451;DHT22;38366;53.176;6.540;2023-04-08T15:33:44;12.50;99.90
52451;DHT22;38366;53.176;6.540;2023-04-08T15:36:10;12.50;99.90
52451;DHT22;38366;53.176;6.540;2023-04-08T15:38:36;12.50;99.90
52451;DHT22;38366;53.176;6.540;2023-04-08T15:41:02;12.40;99.90
52451;DHT22;38366;53.176;6.540;2023-04-08T15:43:29;12.50;99.90
52451;DHT22;38366;53.176;6.540;2023-04-08T15:45:54;12.40;99.90
52451;DHT22;38366;53.176;6.540;2023-04-08T15:48:23;12.40;99.90
52451;DHT22;38366;53.176;6.540;2023-04-08T15:50:48;13.60;99.90
52451;DHT22;38366;53.176;6.540;2023-04-08T15:53:14;12.50;99.90
52451;DHT22;38366;53.176;6.540;2023-04-08T15:55:40;12.40;99.90